Startpagina
METAR-TAF:

METAR-TAF

Vliegvelden :

Goeree Le, Nederland

Productieplatform

breedte: 51-55-33N, lengte: 3-40-12E, hoogte: 19 m

Actueel weer

Dit bericht is 37 minuten geleden gemaakt, om 10:25 UTC
Wind 13 kt uit het oostzuidoosten met uitschieters tot 14 kt
Temperatuur 19°C
Vochtigheid 68%
Druk 1021 hPa
Zicht 10 km of meer

METAR: EHSC 261025Z AUTO 11013G14KT 9999 ///////// 19/13 Q1021 W14/H4

Tijdstip: 13:02 (11:02 UTC)


TAF: ontbreekt

Waarnemingen en weersverwachtingen van meer dan 4000 vliegvelden (METAR en TAF).

De beschikbare stations zijn de gele en rode punten op de kaart.

Ga met uw muis naar het station om de naam te zien.

Klik dan om waarnemingen en weersverwachtingen te zien.

kaart wijzigen: klik op de groene knoppen met een zwart kruis om in te zoomen, op de groene knop met een streepje om uit te zoomen of op de groene pijlen voor aangrenzende kaarten.


METAR-TAF: